sensor_id;sensor_type;location;lat;lon;timestamp;P1;durP1;ratioP1;P2;durP2;ratioP2
4422;SDS011;2224;49.814;8.650;2022-08-11T00:02:34;6.73;;;5.50;;
4422;SDS011;2224;49.814;8.650;2022-08-11T00:05:03;5.23;;;4.70;;
4422;SDS011;2224;49.814;8.650;2022-08-11T00:07:30;5.50;;;5.00;;
4422;SDS011;2224;49.814;8.650;2022-08-11T00:09:56;4.50;;;4.20;;
4422;SDS011;2224;49.814;8.650;2022-08-11T00:12:22;5.93;;;5.40;;
4422;SDS011;2224;49.814;8.650;2022-08-11T00:14:55;5.30;;;4.80;;
4422;SDS011;2224;49.814;8.650;2022-08-11T00:17:25;5.93;;;5.07;;
4422;SDS011;2224;49.814;8.650;2022-08-11T00:19:53;5.03;;;4.60;;
4422;SDS011;2224;49.814;8.650;2022-08-11T00:22:25;7.10;;;5.33;;
4422;SDS011;2224;49.814;8.650;2022-08-11T00:24:52;5.17;;;4.67;;
4422;SDS011;2224;49.814;8.650;2022-08-11T00:27:17;5.27;;;4.87;;
4422;SDS011;2224;49.814;8.650;2022-08-11T00:29:52;5.57;;;5.00;;
4422;SDS011;2224;49.814;8.650;2022-08-11T00:32:18;5.27;;;4.87;;
4422;SDS011;2224;49.814;8.650;2022-08-11T00:34:44;4.90;;;4.43;;
4422;SDS011;2224;49.814;8.650;2022-08-11T00:37:11;5.43;;;4.90;;
4422;SDS011;2224;49.814;8.650;2022-08-11T00:39:43;7.20;;;4.60;;
4422;SDS011;2224;49.814;8.650;2022-08-11T00:42:25;5.30;;;4.90;;
4422;SDS011;2224;49.814;8.650;2022-08-11T00:45:12;5.53;;;4.83;;
4422;SDS011;2224;49.814;8.650;2022-08-11T00:48:00;4.70;;;4.30;;
4422;SDS011;2224;49.814;8.650;2022-08-11T00:50:34;4.73;;;4.43;;
4422;SDS011;2224;49.814;8.650;2022-08-11T01:09:21;4.63;;;4.30;;
4422;SDS011;2224;49.814;8.650;2022-08-11T01:11:58;4.73;;;4.33;;
4422;SDS011;2224;49.814;8.650;2022-08-11T01:20:17;4.80;;;4.40;;
4422;SDS011;2224;49.814;8.650;2022-08-11T01:28:47;4.33;;;4.03;;
4422;SDS011;2224;49.814;8.650;2022-08-11T01:39:48;5.13;;;4.63;;
4422;SDS011;2224;49.814;8.650;2022-08-11T01:51:12;5.30;;;4.70;;
4422;SDS011;2224;49.814;8.650;2022-08-11T01:54:02;5.33;;;4.90;;
4422;SDS011;2224;49.814;8.650;2022-08-11T02:06:49;4.50;;;4.20;;
4422;SDS011;2224;49.814;8.650;2022-08-11T02:15:01;5.70;;;4.40;;
4422;SDS011;2224;49.814;8.650;2022-08-11T02:17:36;5.27;;;4.90;;
4422;SDS011;2224;49.814;8.650;2022-08-11T02:23:26;4.53;;;4.00;;
4422;SDS011;2224;49.814;8.650;2022-08-11T02:26:21;4.40;;;4.00;;
4422;SDS011;2224;49.814;8.650;2022-08-11T02:37:11;5.00;;;4.43;;
4422;SDS011;2224;49.814;8.650;2022-08-11T02:56:24;5.53;;;5.13;;
4422;SDS011;2224;49.814;8.650;2022-08-11T03:12:57;6.90;;;4.70;;
4422;SDS011;2224;49.814;8.650;2022-08-11T03:15:48;5.30;;;4.87;;
4422;SDS011;2224;49.814;8.650;2022-08-11T03:21:46;4.77;;;4.47;;
4422;SDS011;2224;49.814;8.650;2022-08-11T03:27:09;5.33;;;4.83;;
4422;SDS011;2224;49.814;8.650;2022-08-11T03:32:33;6.13;;;5.67;;
4422;SDS011;2224;49.814;8.650;2022-08-11T03:35:53;5.50;;;5.07;;
4422;SDS011;2224;49.814;8.650;2022-08-11T03:38:53;5.20;;;4.20;;
4422;SDS011;2224;49.814;8.650;2022-08-11T03:58:05;5.40;;;4.90;;
4422;SDS011;2224;49.814;8.650;2022-08-11T04:06:27;5.07;;;4.63;;
4422;SDS011;2224;49.814;8.650;2022-08-11T04:22:52;5.80;;;5.40;;
4422;SDS011;2224;49.814;8.650;2022-08-11T04:32:03;6.53;;;5.43;;
4422;SDS011;2224;49.814;8.650;2022-08-11T04:40:33;6.57;;;5.60;;
4422;SDS011;2224;49.814;8.650;2022-08-11T04:52:06;6.50;;;6.00;;
4422;SDS011;2224;49.814;8.650;2022-08-11T05:09:29;8.10;;;7.30;;
4422;SDS011;2224;49.814;8.650;2022-08-11T05:15:01;8.60;;;7.63;;
4422;SDS011;2224;49.814;8.650;2022-08-11T05:21:18;8.57;;;7.70;;
4422;SDS011;2224;49.814;8.650;2022-08-11T05:24:23;9.73;;;8.93;;
4422;SDS011;2224;49.814;8.650;2022-08-11T05:27:13;8.80;;;8.00;;
4422;SDS011;2224;49.814;8.650;2022-08-11T05:30:07;9.10;;;8.30;;
4422;SDS011;2224;49.814;8.650;2022-08-11T05:33:02;9.80;;;9.00;;
4422;SDS011;2224;49.814;8.650;2022-08-11T05:36:14;10.13;;;9.13;;
4422;SDS011;2224;49.814;8.650;2022-08-11T05:38:48;10.47;;;9.47;;
4422;SDS011;2224;49.814;8.650;2022-08-11T05:41:34;9.97;;;8.63;;
4422;SDS011;2224;49.814;8.650;2022-08-11T05:44:18;10.03;;;9.03;;
4422;SDS011;2224;49.814;8.650;2022-08-11T05:47:03;9.50;;;8.70;;
4422;SDS011;2224;49.814;8.650;2022-08-11T05:49:48;10.43;;;9.40;;
4422;SDS011;2224;49.814;8.650;2022-08-11T05:52:33;8.00;;;7.30;;
4422;SDS011;2224;49.814;8.650;2022-08-11T05:55:18;9.13;;;8.03;;
4422;SDS011;2224;49.814;8.650;2022-08-11T05:58:03;9.17;;;8.30;;
4422;SDS011;2224;49.814;8.650;2022-08-11T06:00:30;8.80;;;8.10;;
4422;SDS011;2224;49.814;8.650;2022-08-11T06:02:59;9.33;;;8.43;;
4422;SDS011;2224;49.814;8.650;2022-08-11T06:05:34;8.10;;;7.40;;
4422;SDS011;2224;49.814;8.650;2022-08-11T06:08:00;8.43;;;7.43;;
4422;SDS011;2224;49.814;8.650;2022-08-11T06:10:30;8.53;;;7.73;;
4422;SDS011;2224;49.814;8.650;2022-08-11T06:12:57;8.37;;;7.57;;
4422;SDS011;2224;49.814;8.650;2022-08-11T06:15:25;10.47;;;7.40;;
4422;SDS011;2224;49.814;8.650;2022-08-11T06:17:51;7.43;;;6.83;;
4422;SDS011;2224;49.814;8.650;2022-08-11T06:20:18;7.43;;;6.80;;
4422;SDS011;2224;49.814;8.650;2022-08-11T06:22:44;7.67;;;6.90;;
4422;SDS011;2224;49.814;8.650;2022-08-11T06:25:11;7.50;;;6.90;;
4422;SDS011;2224;49.814;8.650;2022-08-11T06:27:38;7.87;;;7.20;;
4422;SDS011;2224;49.814;8.650;2022-08-11T06:30:05;11.00;;;7.40;;
4422;SDS011;2224;49.814;8.650;2022-08-11T06:32:37;7.53;;;6.83;;
4422;SDS011;2224;49.814;8.650;2022-08-11T06:43:00;8.23;;;6.43;;
4422;SDS011;2224;49.814;8.650;2022-08-11T06:47:58;7.27;;;6.50;;
4422;SDS011;2224;49.814;8.650;2022-08-11T06:50:24;8.13;;;6.77;;
4422;SDS011;2224;49.814;8.650;2022-08-11T06:53:09;7.57;;;6.90;;
4422;SDS011;2224;49.814;8.650;2022-08-11T06:55:37;8.93;;;8.03;;
4422;SDS011;2224;49.814;8.650;2022-08-11T06:58:24;8.20;;;7.43;;
4422;SDS011;2224;49.814;8.650;2022-08-11T07:01:11;8.50;;;7.80;;
4422;SDS011;2224;49.814;8.650;2022-08-11T07:03:42;7.27;;;6.67;;
4422;SDS011;2224;49.814;8.650;2022-08-11T07:06:23;7.10;;;6.40;;
4422;SDS011;2224;49.814;8.650;2022-08-11T07:11:55;5.60;;;5.20;;
4422;SDS011;2224;49.814;8.650;2022-08-11T07:14:50;5.53;;;5.00;;
4422;SDS011;2224;49.814;8.650;2022-08-11T07:17:45;6.03;;;5.43;;
4422;SDS011;2224;49.814;8.650;2022-08-11T07:20:34;9.50;;;5.33;;
4422;SDS011;2224;49.814;8.650;2022-08-11T07:23:19;5.93;;;5.53;;
4422;SDS011;2224;49.814;8.650;2022-08-11T07:26:02;6.40;;;5.30;;
4422;SDS011;2224;49.814;8.650;2022-08-11T07:28:47;6.03;;;5.20;;
4422;SDS011;2224;49.814;8.650;2022-08-11T07:31:34;6.47;;;5.87;;
4422;SDS011;2224;49.814;8.650;2022-08-11T07:34:12;5.67;;;5.17;;
4422;SDS011;2224;49.814;8.650;2022-08-11T07:39:20;5.03;;;4.63;;
4422;SDS011;2224;49.814;8.650;2022-08-11T07:41:50;5.87;;;4.90;;
4422;SDS011;2224;49.814;8.650;2022-08-11T07:44:17;5.10;;;4.70;;
4422;SDS011;2224;49.814;8.650;2022-08-11T07:46:49;8.63;;;5.00;;
4422;SDS011;2224;49.814;8.650;2022-08-11T07:49:36;5.57;;;5.17;;
4422;SDS011;2224;49.814;8.650;2022-08-11T07:52:20;8.37;;;7.57;;
4422;SDS011;2224;49.814;8.650;2022-08-11T07:55:02;7.83;;;6.60;;
4422;SDS011;2224;49.814;8.650;2022-08-11T07:57:30;5.87;;;5.37;;
4422;SDS011;2224;49.814;8.650;2022-08-11T08:00:15;5.77;;;5.20;;
4422;SDS011;2224;49.814;8.650;2022-08-11T08:03:00;5.73;;;5.23;;
4422;SDS011;2224;49.814;8.650;2022-08-11T08:05:44;5.73;;;5.23;;
4422;SDS011;2224;49.814;8.650;2022-08-11T08:08:30;5.37;;;4.97;;
4422;SDS011;2224;49.814;8.650;2022-08-11T08:11:14;5.80;;;5.20;;
4422;SDS011;2224;49.814;8.650;2022-08-11T08:13:58;5.83;;;5.23;;
4422;SDS011;2224;49.814;8.650;2022-08-11T08:16:43;5.87;;;5.37;;
4422;SDS011;2224;49.814;8.650;2022-08-11T08:19:27;9.47;;;6.00;;
4422;SDS011;2224;49.814;8.650;2022-08-11T08:21:53;6.60;;;6.00;;
4422;SDS011;2224;49.814;8.650;2022-08-11T08:24:18;6.30;;;5.70;;
4422;SDS011;2224;49.814;8.650;2022-08-11T08:26:45;6.67;;;5.23;;
4422;SDS011;2224;49.814;8.650;2022-08-11T08:29:25;5.87;;;5.27;;
4422;SDS011;2224;49.814;8.650;2022-08-11T08:32:10;10.23;;;5.57;;
4422;SDS011;2224;49.814;8.650;2022-08-11T08:34:36;7.63;;;5.60;;
4422;SDS011;2224;49.814;8.650;2022-08-11T08:37:02;10.67;;;5.80;;
4422;SDS011;2224;49.814;8.650;2022-08-11T08:39:29;7.97;;;4.90;;
4422;SDS011;2224;49.814;8.650;2022-08-11T08:41:57;5.57;;;4.80;;
4422;SDS011;2224;49.814;8.650;2022-08-11T08:44:24;5.50;;;4.70;;
4422;SDS011;2224;49.814;8.650;2022-08-11T08:46:53;6.20;;;5.63;;
4422;SDS011;2224;49.814;8.650;2022-08-11T08:49:30;6.50;;;5.90;;
4422;SDS011;2224;49.814;8.650;2022-08-11T08:51:58;6.73;;;5.03;;
4422;SDS011;2224;49.814;8.650;2022-08-11T08:54:37;6.30;;;5.10;;
4422;SDS011;2224;49.814;8.650;2022-08-11T08:57:03;5.07;;;4.70;;
4422;SDS011;2224;49.814;8.650;2022-08-11T08:59:31;5.37;;;4.70;;
4422;SDS011;2224;49.814;8.650;2022-08-11T09:02:00;5.47;;;4.97;;
4422;SDS011;2224;49.814;8.650;2022-08-11T09:04:28;5.90;;;4.27;;
4422;SDS011;2224;49.814;8.650;2022-08-11T09:06:54;5.30;;;4.80;;
4422;SDS011;2224;49.814;8.650;2022-08-11T09:09:21;4.70;;;4.30;;
4422;SDS011;2224;49.814;8.650;2022-08-11T09:11:47;4.27;;;3.87;;
4422;SDS011;2224;49.814;8.650;2022-08-11T09:17:16;4.70;;;4.30;;
4422;SDS011;2224;49.814;8.650;2022-08-11T09:19:42;6.20;;;4.37;;
4422;SDS011;2224;49.814;8.650;2022-08-11T09:22:08;4.73;;;4.33;;
4422;SDS011;2224;49.814;8.650;2022-08-11T09:24:52;4.20;;;3.90;;
4422;SDS011;2224;49.814;8.650;2022-08-11T09:27:36;4.63;;;4.23;;
4422;SDS011;2224;49.814;8.650;2022-08-11T09:30:04;4.50;;;4.10;;
4422;SDS011;2224;49.814;8.650;2022-08-11T09:32:31;4.70;;;4.40;;
4422;SDS011;2224;49.814;8.650;2022-08-11T09:34:57;5.13;;;4.40;;
4422;SDS011;2224;49.814;8.650;2022-08-11T09:37:23;4.60;;;4.17;;
4422;SDS011;2224;49.814;8.650;2022-08-11T09:40:07;4.60;;;3.77;;
4422;SDS011;2224;49.814;8.650;2022-08-11T09:42:53;4.17;;;3.80;;
4422;SDS011;2224;49.814;8.650;2022-08-11T09:45:38;8.53;;;4.20;;
4422;SDS011;2224;49.814;8.650;2022-08-11T09:48:03;4.20;;;3.90;;
4422;SDS011;2224;49.814;8.650;2022-08-11T09:50:30;4.40;;;3.97;;
4422;SDS011;2224;49.814;8.650;2022-08-11T09:52:56;4.63;;;4.33;;
4422;SDS011;2224;49.814;8.650;2022-08-11T09:55:22;4.10;;;3.80;;
4422;SDS011;2224;49.814;8.650;2022-08-11T09:57:48;3.73;;;3.43;;
4422;SDS011;2224;49.814;8.650;2022-08-11T10:00:34;4.10;;;3.80;;
4422;SDS011;2224;49.814;8.650;2022-08-11T10:03:09;4.53;;;4.13;;
4422;SDS011;2224;49.814;8.650;2022-08-11T10:05:48;4.97;;;3.53;;
4422;SDS011;2224;49.814;8.650;2022-08-11T10:08:36;4.47;;;4.10;;
4422;SDS011;2224;49.814;8.650;2022-08-11T10:11:02;4.30;;;3.90;;
4422;SDS011;2224;49.814;8.650;2022-08-11T10:13:29;4.90;;;4.50;;
4422;SDS011;2224;49.814;8.650;2022-08-11T10:16:00;6.57;;;4.20;;
4422;SDS011;2224;49.814;8.650;2022-08-11T10:18:34;9.70;;;4.40;;
4422;SDS011;2224;49.814;8.650;2022-08-11T10:21:14;4.67;;;3.77;;
4422;SDS011;2224;49.814;8.650;2022-08-11T10:23:47;4.13;;;3.83;;
4422;SDS011;2224;49.814;8.650;2022-08-11T10:26:31;4.03;;;3.63;;
4422;SDS011;2224;49.814;8.650;2022-08-11T10:29:16;4.47;;;4.07;;
4422;SDS011;2224;49.814;8.650;2022-08-11T10:32:00;5.20;;;4.00;;
4422;SDS011;2224;49.814;8.650;2022-08-11T10:34:47;4.30;;;3.60;;
4422;SDS011;2224;49.814;8.650;2022-08-11T10:37:13;5.33;;;3.60;;
4422;SDS011;2224;49.814;8.650;2022-08-11T10:39:39;6.13;;;3.50;;
4422;SDS011;2224;49.814;8.650;2022-08-11T10:42:05;4.73;;;3.87;;
4422;SDS011;2224;49.814;8.650;2022-08-11T10:44:50;4.30;;;3.90;;
4422;SDS011;2224;49.814;8.650;2022-08-11T10:47:16;4.60;;;4.20;;
4422;SDS011;2224;49.814;8.650;2022-08-11T10:50:02;4.53;;;4.00;;
4422;SDS011;2224;49.814;8.650;2022-08-11T10:52:51;4.30;;;3.97;;
4422;SDS011;2224;49.814;8.650;2022-08-11T10:55:35;4.07;;;3.67;;
4422;SDS011;2224;49.814;8.650;2022-08-11T10:58:20;5.67;;;4.17;;
4422;SDS011;2224;49.814;8.650;2022-08-11T11:01:04;4.27;;;3.87;;
4422;SDS011;2224;49.814;8.650;2022-08-11T11:03:30;5.73;;;4.30;;
4422;SDS011;2224;49.814;8.650;2022-08-11T11:06:11;7.90;;;4.50;;
4422;SDS011;2224;49.814;8.650;2022-08-11T11:08:44;4.23;;;3.83;;
4422;SDS011;2224;49.814;8.650;2022-08-11T11:11:17;4.50;;;4.10;;
4422;SDS011;2224;49.814;8.650;2022-08-11T11:13:45;4.70;;;4.30;;
4422;SDS011;2224;49.814;8.650;2022-08-11T11:16:32;4.60;;;4.20;;
4422;SDS011;2224;49.814;8.650;2022-08-11T11:19:17;4.83;;;4.37;;
4422;SDS011;2224;49.814;8.650;2022-08-11T11:21:45;5.53;;;4.97;;
4422;SDS011;2224;49.814;8.650;2022-08-11T11:24:20;5.27;;;4.87;;
4422;SDS011;2224;49.814;8.650;2022-08-11T11:27:15;5.67;;;4.80;;
4422;SDS011;2224;49.814;8.650;2022-08-11T11:29:56;5.90;;;5.30;;
4422;SDS011;2224;49.814;8.650;2022-08-11T11:32:40;7.50;;;4.60;;
4422;SDS011;2224;49.814;8.650;2022-08-11T11:37:41;4.70;;;4.30;;
4422;SDS011;2224;49.814;8.650;2022-08-11T11:40:09;4.90;;;4.50;;
4422;SDS011;2224;49.814;8.650;2022-08-11T11:42:39;5.87;;;4.63;;
4422;SDS011;2224;49.814;8.650;2022-08-11T11:45:06;5.17;;;4.63;;
4422;SDS011;2224;49.814;8.650;2022-08-11T11:47:34;4.93;;;4.57;;
4422;SDS011;2224;49.814;8.650;2022-08-11T11:50:00;6.43;;;4.93;;
4422;SDS011;2224;49.814;8.650;2022-08-11T11:52:25;5.00;;;4.60;;
4422;SDS011;2224;49.814;8.650;2022-08-11T11:54:53;6.20;;;4.70;;
4422;SDS011;2224;49.814;8.650;2022-08-11T11:57:20;5.10;;;4.60;;
4422;SDS011;2224;49.814;8.650;2022-08-11T12:00:05;4.63;;;4.30;;
4422;SDS011;2224;49.814;8.650;2022-08-11T12:02:50;4.30;;;3.90;;
4422;SDS011;2224;49.814;8.650;2022-08-11T12:05:16;5.73;;;4.63;;
4422;SDS011;2224;49.814;8.650;2022-08-11T12:07:42;4.67;;;4.30;;
4422;SDS011;2224;49.814;8.650;2022-08-11T12:10:26;5.13;;;4.50;;
4422;SDS011;2224;49.814;8.650;2022-08-11T12:12:51;6.70;;;4.07;;
4422;SDS011;2224;49.814;8.650;2022-08-11T12:15:40;4.70;;;4.30;;
4422;SDS011;2224;49.814;8.650;2022-08-11T12:18:06;4.90;;;4.20;;
4422;SDS011;2224;49.814;8.650;2022-08-11T12:20:31;4.93;;;3.73;;
4422;SDS011;2224;49.814;8.650;2022-08-11T12:22:57;4.70;;;4.00;;
4422;SDS011;2224;49.814;8.650;2022-08-11T12:25:41;4.83;;;4.13;;
4422;SDS011;2224;49.814;8.650;2022-08-11T12:28:27;4.80;;;4.30;;
4422;SDS011;2224;49.814;8.650;2022-08-11T12:30:52;4.47;;;4.10;;
4422;SDS011;2224;49.814;8.650;2022-08-11T12:33:18;5.33;;;3.93;;
4422;SDS011;2224;49.814;8.650;2022-08-11T12:35:45;6.40;;;3.67;;
4422;SDS011;2224;49.814;8.650;2022-08-11T12:38:12;4.10;;;3.80;;
4422;SDS011;2224;49.814;8.650;2022-08-11T12:40:38;4.70;;;4.27;;
4422;SDS011;2224;49.814;8.650;2022-08-11T12:43:23;4.80;;;3.90;;
4422;SDS011;2224;49.814;8.650;2022-08-11T12:46:23;4.50;;;4.10;;
4422;SDS011;2224;49.814;8.650;2022-08-11T12:48:54;4.43;;;4.03;;
4422;SDS011;2224;49.814;8.650;2022-08-11T12:51:44;4.47;;;4.10;;
4422;SDS011;2224;49.814;8.650;2022-08-11T12:54:30;5.27;;;4.57;;
4422;SDS011;2224;49.814;8.650;2022-08-11T12:57:02;4.13;;;3.83;;
4422;SDS011;2224;49.814;8.650;2022-08-11T12:59:53;4.10;;;3.77;;
4422;SDS011;2224;49.814;8.650;2022-08-11T13:02:38;4.73;;;3.77;;
4422;SDS011;2224;49.814;8.650;2022-08-11T13:05:22;3.90;;;3.60;;
4422;SDS011;2224;49.814;8.650;2022-08-11T13:07:48;3.83;;;3.40;;
4422;SDS011;2224;49.814;8.650;2022-08-11T13:10:14;3.97;;;3.33;;
4422;SDS011;2224;49.814;8.650;2022-08-11T13:13:01;4.80;;;3.93;;
4422;SDS011;2224;49.814;8.650;2022-08-11T13:15:28;3.67;;;3.37;;
4422;SDS011;2224;49.814;8.650;2022-08-11T13:17:53;3.40;;;3.10;;
4422;SDS011;2224;49.814;8.650;2022-08-11T13:20:22;6.63;;;2.93;;
4422;SDS011;2224;49.814;8.650;2022-08-11T13:22:49;3.70;;;3.40;;
4422;SDS011;2224;49.814;8.650;2022-08-11T13:25:16;3.70;;;3.40;;
4422;SDS011;2224;49.814;8.650;2022-08-11T13:27:43;4.03;;;3.57;;
4422;SDS011;2224;49.814;8.650;2022-08-11T13:30:10;3.40;;;3.10;;
4422;SDS011;2224;49.814;8.650;2022-08-11T13:32:55;3.80;;;3.33;;
4422;SDS011;2224;49.814;8.650;2022-08-11T13:35:21;4.47;;;3.50;;
4422;SDS011;2224;49.814;8.650;2022-08-11T13:37:46;3.20;;;2.90;;
4422;SDS011;2224;49.814;8.650;2022-08-11T13:40:14;5.37;;;3.40;;
4422;SDS011;2224;49.814;8.650;2022-08-11T13:42:40;3.60;;;3.40;;
4422;SDS011;2224;49.814;8.650;2022-08-11T13:45:06;3.83;;;3.53;;
4422;SDS011;2224;49.814;8.650;2022-08-11T13:47:33;4.80;;;3.30;;
4422;SDS011;2224;49.814;8.650;2022-08-11T13:49:59;3.63;;;3.33;;
4422;SDS011;2224;49.814;8.650;2022-08-11T13:52:24;3.80;;;3.50;;
4422;SDS011;2224;49.814;8.650;2022-08-11T13:54:52;3.70;;;3.30;;
4422;SDS011;2224;49.814;8.650;2022-08-11T13:57:17;3.53;;;3.17;;
4422;SDS011;2224;49.814;8.650;2022-08-11T13:59:44;3.83;;;3.17;;
4422;SDS011;2224;49.814;8.650;2022-08-11T14:02:12;3.90;;;3.50;;
4422;SDS011;2224;49.814;8.650;2022-08-11T14:04:42;3.27;;;2.97;;
4422;SDS011;2224;49.814;8.650;2022-08-11T14:07:13;3.33;;;3.10;;
4422;SDS011;2224;49.814;8.650;2022-08-11T14:09:42;3.40;;;3.13;;
4422;SDS011;2224;49.814;8.650;2022-08-11T14:12:12;4.70;;;3.37;;
4422;SDS011;2224;49.814;8.650;2022-08-11T14:15:04;3.90;;;3.60;;
4422;SDS011;2224;49.814;8.650;2022-08-11T14:17:33;6.47;;;3.17;;
4422;SDS011;2224;49.814;8.650;2022-08-11T14:20:00;3.10;;;2.90;;
4422;SDS011;2224;49.814;8.650;2022-08-11T14:22:28;3.23;;;2.70;;
4422;SDS011;2224;49.814;8.650;2022-08-11T14:24:53;3.00;;;2.80;;
4422;SDS011;2224;49.814;8.650;2022-08-11T14:27:19;3.30;;;3.00;;
4422;SDS011;2224;49.814;8.650;2022-08-11T14:29:50;3.53;;;3.23;;
4422;SDS011;2224;49.814;8.650;2022-08-11T14:32:15;2.80;;;2.60;;
4422;SDS011;2224;49.814;8.650;2022-08-11T14:34:42;3.00;;;2.70;;
4422;SDS011;2224;49.814;8.650;2022-08-11T14:37:11;3.50;;;3.20;;
4422;SDS011;2224;49.814;8.650;2022-08-11T14:39:52;7.00;;;3.10;;
4422;SDS011;2224;49.814;8.650;2022-08-11T14:42:20;3.10;;;2.90;;
4422;SDS011;2224;49.814;8.650;2022-08-11T14:45:06;2.97;;;2.77;;
4422;SDS011;2224;49.814;8.650;2022-08-11T14:48:01;2.97;;;2.50;;
4422;SDS011;2224;49.814;8.650;2022-08-11T14:50:29;3.00;;;2.70;;
4422;SDS011;2224;49.814;8.650;2022-08-11T14:53:02;4.97;;;3.00;;
4422;SDS011;2224;49.814;8.650;2022-08-11T14:55:31;6.87;;;3.27;;
4422;SDS011;2224;49.814;8.650;2022-08-11T14:58:18;3.27;;;2.97;;
4422;SDS011;2224;49.814;8.650;2022-08-11T15:00:45;7.37;;;3.00;;
4422;SDS011;2224;49.814;8.650;2022-08-11T15:03:11;3.03;;;2.80;;
4422;SDS011;2224;49.814;8.650;2022-08-11T15:05:43;3.87;;;3.10;;
4422;SDS011;2224;49.814;8.650;2022-08-11T15:08:12;3.03;;;2.73;;
4422;SDS011;2224;49.814;8.650;2022-08-11T15:10:38;3.20;;;2.40;;
4422;SDS011;2224;49.814;8.650;2022-08-11T15:13:04;3.60;;;2.80;;
4422;SDS011;2224;49.814;8.650;2022-08-11T15:15:30;3.53;;;2.73;;
4422;SDS011;2224;49.814;8.650;2022-08-11T15:18:14;2.87;;;2.67;;
4422;SDS011;2224;49.814;8.650;2022-08-11T15:20:41;3.80;;;3.23;;
4422;SDS011;2224;49.814;8.650;2022-08-11T15:23:26;3.93;;;2.13;;
4422;SDS011;2224;49.814;8.650;2022-08-11T15:26:12;3.57;;;2.80;;
4422;SDS011;2224;49.814;8.650;2022-08-11T15:28:42;5.77;;;2.70;;
4422;SDS011;2224;49.814;8.650;2022-08-11T15:31:28;4.23;;;2.80;;
4422;SDS011;2224;49.814;8.650;2022-08-11T15:34:15;3.10;;;2.90;;
4422;SDS011;2224;49.814;8.650;2022-08-11T15:37:02;4.10;;;3.07;;
4422;SDS011;2224;49.814;8.650;2022-08-11T15:39:50;3.17;;;2.87;;
4422;SDS011;2224;49.814;8.650;2022-08-11T15:43:27;4.93;;;3.00;;
4422;SDS011;2224;49.814;8.650;2022-08-11T15:45:58;3.60;;;3.10;;
4422;SDS011;2224;49.814;8.650;2022-08-11T15:51:26;4.57;;;3.00;;
4422;SDS011;2224;49.814;8.650;2022-08-11T15:53:57;5.33;;;3.60;;
4422;SDS011;2224;49.814;8.650;2022-08-11T15:56:26;4.83;;;3.10;;
4422;SDS011;2224;49.814;8.650;2022-08-11T15:58:53;3.60;;;2.97;;
4422;SDS011;2224;49.814;8.650;2022-08-11T16:01:41;3.53;;;3.20;;
4422;SDS011;2224;49.814;8.650;2022-08-11T16:04:26;4.23;;;2.80;;
4422;SDS011;2224;49.814;8.650;2022-08-11T16:09:40;3.60;;;3.30;;
4422;SDS011;2224;49.814;8.650;2022-08-11T16:12:12;3.00;;;2.70;;
4422;SDS011;2224;49.814;8.650;2022-08-11T16:14:40;3.50;;;2.90;;
4422;SDS011;2224;49.814;8.650;2022-08-11T16:17:26;3.87;;;2.50;;
4422;SDS011;2224;49.814;8.650;2022-08-11T16:19:55;7.43;;;3.43;;
4422;SDS011;2224;49.814;8.650;2022-08-11T16:22:28;4.07;;;3.53;;
4422;SDS011;2224;49.814;8.650;2022-08-11T16:25:01;3.23;;;2.97;;
4422;SDS011;2224;49.814;8.650;2022-08-11T16:27:27;3.73;;;3.37;;
4422;SDS011;2224;49.814;8.650;2022-08-11T16:29:54;4.40;;;3.50;;
4422;SDS011;2224;49.814;8.650;2022-08-11T16:32:20;3.77;;;3.47;;
4422;SDS011;2224;49.814;8.650;2022-08-11T16:34:54;3.33;;;2.80;;
4422;SDS011;2224;49.814;8.650;2022-08-11T16:37:41;3.60;;;3.30;;
4422;SDS011;2224;49.814;8.650;2022-08-11T16:40:26;4.10;;;3.70;;
4422;SDS011;2224;49.814;8.650;2022-08-11T16:42:53;3.53;;;2.87;;
4422;SDS011;2224;49.814;8.650;2022-08-11T16:45:38;3.50;;;3.20;;
4422;SDS011;2224;49.814;8.650;2022-08-11T16:48:24;4.47;;;3.13;;
4422;SDS011;2224;49.814;8.650;2022-08-11T16:50:52;10.00;;;3.23;;
4422;SDS011;2224;49.814;8.650;2022-08-11T16:53:18;3.80;;;3.40;;
4422;SDS011;2224;49.814;8.650;2022-08-11T16:55:44;7.00;;;3.60;;
4422;SDS011;2224;49.814;8.650;2022-08-11T16:58:11;4.13;;;3.10;;
4422;SDS011;2224;49.814;8.650;2022-08-11T17:00:56;4.13;;;3.33;;
4422;SDS011;2224;49.814;8.650;2022-08-11T17:03:22;3.60;;;3.00;;
4422;SDS011;2224;49.814;8.650;2022-08-11T17:06:06;5.37;;;3.30;;
4422;SDS011;2224;49.814;8.650;2022-08-11T17:08:59;4.80;;;3.40;;
4422;SDS011;2224;49.814;8.650;2022-08-11T17:11:45;3.70;;;3.30;;
4422;SDS011;2224;49.814;8.650;2022-08-11T17:14:35;3.67;;;3.27;;
4422;SDS011;2224;49.814;8.650;2022-08-11T17:17:08;3.50;;;3.20;;
4422;SDS011;2224;49.814;8.650;2022-08-11T17:19:37;3.77;;;2.90;;
4422;SDS011;2224;49.814;8.650;2022-08-11T17:22:06;4.10;;;3.27;;
4422;SDS011;2224;49.814;8.650;2022-08-11T17:24:50;4.50;;;2.70;;
4422;SDS011;2224;49.814;8.650;2022-08-11T17:27:16;2.70;;;2.50;;
4422;SDS011;2224;49.814;8.650;2022-08-11T17:29:51;3.87;;;3.30;;
4422;SDS011;2224;49.814;8.650;2022-08-11T17:32:25;3.70;;;3.07;;
4422;SDS011;2224;49.814;8.650;2022-08-11T17:35:13;3.33;;;3.03;;
4422;SDS011;2224;49.814;8.650;2022-08-11T17:40:38;4.10;;;3.07;;
4422;SDS011;2224;49.814;8.650;2022-08-11T17:43:24;3.20;;;2.90;;
4422;SDS011;2224;49.814;8.650;2022-08-11T17:46:08;5.77;;;3.40;;
4422;SDS011;2224;49.814;8.650;2022-08-11T17:48:52;3.77;;;3.30;;
4422;SDS011;2224;49.814;8.650;2022-08-11T17:51:18;3.30;;;3.00;;
4422;SDS011;2224;49.814;8.650;2022-08-11T17:54:02;4.07;;;3.23;;
4422;SDS011;2224;49.814;8.650;2022-08-11T17:56:47;3.70;;;3.27;;
4422;SDS011;2224;49.814;8.650;2022-08-11T17:59:32;3.70;;;3.40;;
4422;SDS011;2224;49.814;8.650;2022-08-11T18:02:25;4.43;;;3.30;;
4422;SDS011;2224;49.814;8.650;2022-08-11T18:05:12;3.67;;;3.00;;
4422;SDS011;2224;49.814;8.650;2022-08-11T18:07:39;3.33;;;3.03;;
4422;SDS011;2224;49.814;8.650;2022-08-11T18:10:24;7.60;;;3.23;;
4422;SDS011;2224;49.814;8.650;2022-08-11T18:13:08;3.37;;;3.07;;
4422;SDS011;2224;49.814;8.650;2022-08-11T18:15:53;7.37;;;2.97;;
4422;SDS011;2224;49.814;8.650;2022-08-11T18:18:37;3.17;;;2.97;;
4422;SDS011;2224;49.814;8.650;2022-08-11T18:21:21;4.10;;;3.50;;
4422;SDS011;2224;49.814;8.650;2022-08-11T18:24:07;3.90;;;3.10;;
4422;SDS011;2224;49.814;8.650;2022-08-11T18:26:54;3.90;;;3.00;;
4422;SDS011;2224;49.814;8.650;2022-08-11T18:29:40;7.77;;;3.27;;
4422;SDS011;2224;49.814;8.650;2022-08-11T18:32:25;5.83;;;3.60;;
4422;SDS011;2224;49.814;8.650;2022-08-11T18:35:11;3.40;;;3.10;;
4422;SDS011;2224;49.814;8.650;2022-08-11T18:37:56;5.40;;;3.60;;
4422;SDS011;2224;49.814;8.650;2022-08-11T18:40:41;3.33;;;3.03;;
4422;SDS011;2224;49.814;8.650;2022-08-11T18:43:27;3.30;;;3.00;;
4422;SDS011;2224;49.814;8.650;2022-08-11T18:46:12;4.00;;;3.47;;
4422;SDS011;2224;49.814;8.650;2022-08-11T18:48:58;5.07;;;3.73;;
4422;SDS011;2224;49.814;8.650;2022-08-11T18:51:45;4.37;;;3.40;;
4422;SDS011;2224;49.814;8.650;2022-08-11T18:54:31;3.83;;;3.43;;
4422;SDS011;2224;49.814;8.650;2022-08-11T18:57:18;4.77;;;3.90;;
4422;SDS011;2224;49.814;8.650;2022-08-11T19:00:02;6.43;;;4.03;;
4422;SDS011;2224;49.814;8.650;2022-08-11T19:02:47;4.77;;;4.33;;
4422;SDS011;2224;49.814;8.650;2022-08-11T19:05:32;5.40;;;4.17;;
4422;SDS011;2224;49.814;8.650;2022-08-11T19:08:18;6.17;;;4.03;;
4422;SDS011;2224;49.814;8.650;2022-08-11T19:11:04;3.83;;;3.50;;
4422;SDS011;2224;49.814;8.650;2022-08-11T19:13:49;7.40;;;4.07;;
4422;SDS011;2224;49.814;8.650;2022-08-11T19:16:33;6.63;;;3.90;;
4422;SDS011;2224;49.814;8.650;2022-08-11T19:19:18;6.70;;;3.73;;
4422;SDS011;2224;49.814;8.650;2022-08-11T19:22:02;6.07;;;3.63;;
4422;SDS011;2224;49.814;8.650;2022-08-11T19:24:47;4.00;;;3.60;;
4422;SDS011;2224;49.814;8.650;2022-08-11T19:27:34;4.17;;;3.87;;
4422;SDS011;2224;49.814;8.650;2022-08-11T19:30:19;9.53;;;3.77;;
4422;SDS011;2224;49.814;8.650;2022-08-11T19:33:03;4.90;;;3.57;;
4422;SDS011;2224;49.814;8.650;2022-08-11T19:35:47;8.77;;;4.20;;
4422;SDS011;2224;49.814;8.650;2022-08-11T19:38:31;4.60;;;4.00;;
4422;SDS011;2224;49.814;8.650;2022-08-11T19:41:17;7.63;;;5.13;;
4422;SDS011;2224;49.814;8.650;2022-08-11T19:44:01;9.50;;;5.27;;
4422;SDS011;2224;49.814;8.650;2022-08-11T19:46:46;6.90;;;4.43;;
4422;SDS011;2224;49.814;8.650;2022-08-11T19:49:32;6.47;;;3.67;;
4422;SDS011;2224;49.814;8.650;2022-08-11T19:52:16;5.27;;;4.10;;
4422;SDS011;2224;49.814;8.650;2022-08-11T19:55:00;7.60;;;4.67;;